createdAt,value
2022-08-22T00:00:11.735Z,92.29
2022-08-22T00:05:28.923Z,91.40
2022-08-22T00:10:47.162Z,91.59
2022-08-22T00:15:56.468Z,90.71
2022-08-22T00:21:06.477Z,90.15
2022-08-22T00:26:15.330Z,90.25
2022-08-22T00:31:26.721Z,89.43
2022-08-22T00:36:34.650Z,88.76
2022-08-22T00:41:49.969Z,88.71
2022-08-22T00:47:11.110Z,89.60
2022-08-22T00:52:37.406Z,89.39
2022-08-22T00:57:54.495Z,89.61
2022-08-22T01:03:46.701Z,90.59
2022-08-22T01:09:04.185Z,90.56
2022-08-22T01:14:34.256Z,91.05
2022-08-22T01:20:04.763Z,90.97
2022-08-22T01:25:38.322Z,91.17
2022-08-22T01:31:12.181Z,90.66
2022-08-22T01:36:32.014Z,90.93
2022-08-22T01:42:00.973Z,91.15
2022-08-22T01:47:06.048Z,90.69
2022-08-22T01:52:13.171Z,90.86
2022-08-22T01:57:14.793Z,91.36
2022-08-22T02:02:34.360Z,89.99
2022-08-22T02:07:48.546Z,90.29
2022-08-22T02:12:56.573Z,90.30
2022-08-22T02:18:12.741Z,89.68
2022-08-22T02:23:23.287Z,87.97
2022-08-22T02:28:34.078Z,88.23
2022-08-22T02:33:43.575Z,87.54
2022-08-22T02:38:57.107Z,87.96
2022-08-22T02:44:02.714Z,87.14
2022-08-22T02:49:14.105Z,86.70
2022-08-22T02:54:22.213Z,88.48
2022-08-22T02:59:33.306Z,87.71
2022-08-22T03:04:52.026Z,88.97
2022-08-22T03:10:07.155Z,89.21
2022-08-22T03:15:14.372Z,90.88
2022-08-22T03:20:21.359Z,90.80
2022-08-22T03:25:31.714Z,90.59
2022-08-22T03:30:38.019Z,90.23
2022-08-22T03:35:54.420Z,90.21
2022-08-22T03:41:11.905Z,90.11
2022-08-22T03:46:52.608Z,90.16
2022-08-22T03:52:07.688Z,90.09
2022-08-22T03:57:48.025Z,89.73
2022-08-22T04:03:19.541Z,89.96
2022-08-22T04:08:58.154Z,90.49
2022-08-22T04:14:40.515Z,89.69
2022-08-22T04:19:59.984Z,90.69
2022-08-22T04:25:07.721Z,90.39
2022-08-22T04:30:26.369Z,90.48
2022-08-22T04:35:32.384Z,91.15
2022-08-22T04:40:37.821Z,90.42
2022-08-22T04:45:47.573Z,89.90
2022-08-22T04:50:51.850Z,89.59
2022-08-22T04:56:07.091Z,89.46
2022-08-22T05:01:16.637Z,88.94
2022-08-22T05:06:20.108Z,88.47
2022-08-22T05:11:25.000Z,87.66
2022-08-22T05:16:33.692Z,87.50
2022-08-22T05:21:38.508Z,86.97
2022-08-22T05:26:46.944Z,86.89
2022-08-22T05:31:54.584Z,86.74
2022-08-22T05:37:03.927Z,85.62
2022-08-22T05:42:16.522Z,84.59
2022-08-22T05:47:23.995Z,83.63
2022-08-22T05:52:37.944Z,83.06
2022-08-22T05:57:42.607Z,82.52
2022-08-22T06:02:59.314Z,81.84
2022-08-22T06:08:05.732Z,81.02
2022-08-22T06:13:11.885Z,80.02
2022-08-22T06:18:17.865Z,79.08
2022-08-22T06:23:24.582Z,78.11
2022-08-22T06:28:27.653Z,77.75
2022-08-22T06:33:32.165Z,76.70
2022-08-22T06:38:52.919Z,76.19
2022-08-22T06:43:55.088Z,76.33
2022-08-22T06:49:00.346Z,74.53
2022-08-22T06:54:04.536Z,74.61
2022-08-22T06:59:12.044Z,72.68
2022-08-22T07:04:14.718Z,72.45
2022-08-22T07:09:26.850Z,71.13
2022-08-22T07:14:31.171Z,69.53
2022-08-22T07:19:37.019Z,67.95
2022-08-22T07:24:39.388Z,67.78
2022-08-22T07:29:48.766Z,67.13
2022-08-22T07:35:07.735Z,66.14
2022-08-22T07:40:17.789Z,66.16
2022-08-22T07:45:26.919Z,64.67
2022-08-22T07:50:33.523Z,64.86
2022-08-22T07:55:42.241Z,64.40
2022-08-22T08:00:52.679Z,63.87
2022-08-22T08:05:55.734Z,62.80
2022-08-22T08:11:00.265Z,62.96
2022-08-22T08:16:01.702Z,61.78
2022-08-22T08:21:07.849Z,62.61
2022-08-22T08:26:13.096Z,61.25
2022-08-22T08:31:24.785Z,60.88
2022-08-22T08:36:37.848Z,62.27
2022-08-22T08:42:11.505Z,61.04
2022-08-22T08:47:27.319Z,61.22
2022-08-22T08:52:59.416Z,61.21
2022-08-22T08:58:17.728Z,60.19
2022-08-22T09:03:38.382Z,59.36
2022-08-22T09:08:55.662Z,60.15
2022-08-22T09:14:11.859Z,58.29
2022-08-22T09:19:38.733Z,57.32
2022-08-22T09:25:12.619Z,57.88
2022-08-22T09:30:27.737Z,57.19
2022-08-22T09:35:41.059Z,55.50
2022-08-22T09:40:49.908Z,54.32
2022-08-22T09:46:03.510Z,55.89
2022-08-22T09:51:33.086Z,55.55
2022-08-22T09:56:39.537Z,56.00
2022-08-22T10:01:48.812Z,55.54
2022-08-22T10:07:02.805Z,55.26
2022-08-22T10:12:12.887Z,53.79
2022-08-22T10:17:21.959Z,52.61
2022-08-22T10:22:30.928Z,52.24
2022-08-22T10:27:45.245Z,51.86
2022-08-22T10:32:52.500Z,51.04
2022-08-22T10:37:58.429Z,49.93
2022-08-22T10:43:09.299Z,49.54
2022-08-22T10:48:36.112Z,50.33
2022-08-22T10:53:54.796Z,51.41
2022-08-22T10:59:06.106Z,51.01
2022-08-22T11:04:18.921Z,49.19
2022-08-22T11:09:36.857Z,49.62
2022-08-22T11:15:09.040Z,50.52
2022-08-22T11:20:23.413Z,50.36
2022-08-22T11:25:53.717Z,49.74
2022-08-22T11:31:07.025Z,47.79
2022-08-22T11:36:27.292Z,47.89
2022-08-22T11:41:38.163Z,49.36
2022-08-22T11:46:48.358Z,49.75
2022-08-22T11:52:01.144Z,48.63
2022-08-22T11:57:07.894Z,48.75
2022-08-22T12:02:20.477Z,48.29
2022-08-22T12:07:29.315Z,48.79
2022-08-22T12:12:55.352Z,47.57
2022-08-22T12:18:25.110Z,47.07
2022-08-22T12:23:57.180Z,48.74
2022-08-22T12:29:15.641Z,50.05
2022-08-22T12:34:27.673Z,48.96
2022-08-22T12:39:54.353Z,47.42
2022-08-22T12:45:17.460Z,49.21
2022-08-22T12:50:35.500Z,47.21
2022-08-22T12:56:11.395Z,47.56
2022-08-22T13:01:13.468Z,47.07
2022-08-22T13:06:50.009Z,47.55
2022-08-22T13:11:53.668Z,47.55
2022-08-22T13:17:23.835Z,47.98
2022-08-22T13:22:29.409Z,48.82
2022-08-22T13:27:34.569Z,48.39
2022-08-22T13:32:44.376Z,49.87
2022-08-22T13:37:51.381Z,49.83
2022-08-22T13:43:04.171Z,49.83
2022-08-22T13:48:11.495Z,50.35
2022-08-22T13:53:24.925Z,49.85
2022-08-22T13:58:37.372Z,49.23
2022-08-22T14:03:48.848Z,48.95
2022-08-22T14:08:54.665Z,49.59
2022-08-22T14:13:59.985Z,49.33
2022-08-22T14:19:07.087Z,49.39
2022-08-22T14:24:17.138Z,48.56
2022-08-22T14:29:22.300Z,49.25
2022-08-22T14:34:24.107Z,49.54
2022-08-22T14:39:32.120Z,50.00
2022-08-22T14:44:43.304Z,49.92
2022-08-22T14:49:53.601Z,49.84
2022-08-22T14:55:09.639Z,50.60
2022-08-22T15:00:12.922Z,50.49
2022-08-22T15:05:17.741Z,49.85
2022-08-22T15:10:25.965Z,51.75
2022-08-22T15:15:49.706Z,52.28
2022-08-22T15:21:02.977Z,51.66
2022-08-22T15:26:17.490Z,51.99
2022-08-22T15:31:20.242Z,51.66
2022-08-22T15:36:24.636Z,51.29
2022-08-22T15:41:38.075Z,51.67
2022-08-22T15:46:42.348Z,51.10
2022-08-22T15:51:52.596Z,51.87
2022-08-22T15:57:16.442Z,52.90
2022-08-22T16:02:27.079Z,53.23
2022-08-22T16:07:39.513Z,53.17
2022-08-22T16:13:04.114Z,53.13
2022-08-22T16:18:06.851Z,52.36
2022-08-22T16:23:08.816Z,51.85
2022-08-22T16:28:36.099Z,52.30
2022-08-22T16:33:44.436Z,53.55
2022-08-22T16:38:49.358Z,52.19
2022-08-22T16:44:17.510Z,53.01
2022-08-22T16:49:28.599Z,52.95
2022-08-22T16:54:43.839Z,53.64
2022-08-22T16:59:58.736Z,54.67
2022-08-22T17:05:23.011Z,54.93
2022-08-22T17:10:36.884Z,55.48
2022-08-22T17:15:56.636Z,55.15
2022-08-22T17:21:06.016Z,54.92
2022-08-22T17:26:20.024Z,55.38
2022-08-22T17:31:32.676Z,55.77
2022-08-22T17:36:53.099Z,56.24
2022-08-22T17:42:02.191Z,56.57
2022-08-22T17:47:14.863Z,57.08
2022-08-22T17:52:23.891Z,58.00
2022-08-22T17:57:30.526Z,58.34
2022-08-22T18:02:40.656Z,58.99
2022-08-22T18:08:02.320Z,58.97
2022-08-22T18:13:11.240Z,59.30
2022-08-22T18:18:29.517Z,59.81
2022-08-22T18:23:39.123Z,60.45
2022-08-22T18:28:50.981Z,59.89
2022-08-22T18:34:00.763Z,62.34
2022-08-22T18:39:07.157Z,61.51
2022-08-22T18:44:11.989Z,61.18
2022-08-22T18:49:43.371Z,61.86
2022-08-22T18:54:57.423Z,62.98
2022-08-22T19:00:08.534Z,64.11
2022-08-22T19:06:02.267Z,65.61
2022-08-22T19:11:17.311Z,67.11
2022-08-22T19:16:47.927Z,67.56
2022-08-22T19:22:33.773Z,66.72
2022-08-22T19:27:39.537Z,67.05
2022-08-22T19:33:01.406Z,67.76
2022-08-22T19:38:05.313Z,68.85
2022-08-22T19:43:21.241Z,68.23
2022-08-22T19:48:28.917Z,68.74
2022-08-22T19:53:39.703Z,68.90
2022-08-22T19:58:55.404Z,67.88
2022-08-22T20:04:02.192Z,69.97
2022-08-22T20:09:25.711Z,71.53
2022-08-22T20:14:31.413Z,74.36
2022-08-22T20:19:42.648Z,79.12
2022-08-22T20:24:46.834Z,82.68
2022-08-22T20:29:53.961Z,84.20
2022-08-22T20:34:58.705Z,86.85
2022-08-22T20:40:25.898Z,88.43
2022-08-22T20:45:49.126Z,90.11
2022-08-22T20:50:51.579Z,91.83
2022-08-22T20:55:54.925Z,91.34
2022-08-22T21:01:00.073Z,92.14
2022-08-22T21:06:11.892Z,93.50
2022-08-22T21:11:40.222Z,94.97
2022-08-22T21:16:42.228Z,97.49
2022-08-22T21:21:42.949Z,99.47
2022-08-22T21:26:50.622Z,100.00
2022-08-22T21:31:59.213Z,100.00
2022-08-22T21:37:09.808Z,100.00
2022-08-22T21:42:13.433Z,100.00
2022-08-22T21:47:30.541Z,100.00
2022-08-22T21:52:33.996Z,100.00
2022-08-22T21:57:36.641Z,100.00
2022-08-22T22:02:40.595Z,100.00
2022-08-22T22:07:43.742Z,100.00
2022-08-22T22:12:47.240Z,100.00
2022-08-22T22:17:49.332Z,100.00
2022-08-22T22:22:50.766Z,100.00
2022-08-22T22:27:51.670Z,100.00
2022-08-22T22:32:53.672Z,100.00
2022-08-22T22:37:56.103Z,100.00
2022-08-22T22:42:56.884Z,100.00
2022-08-22T22:47:59.252Z,100.00
2022-08-22T22:53:00.571Z,100.00
2022-08-22T22:58:01.741Z,100.00
2022-08-22T23:03:06.599Z,100.00
2022-08-22T23:08:07.349Z,100.00
2022-08-22T23:13:08.022Z,100.00
2022-08-22T23:18:10.103Z,100.00
2022-08-22T23:23:10.767Z,100.00
2022-08-22T23:28:11.570Z,100.00
2022-08-22T23:33:14.305Z,100.00
2022-08-22T23:38:15.004Z,100.00
2022-08-22T23:43:20.909Z,100.00
2022-08-22T23:48:22.943Z,100.00
2022-08-22T23:53:23.609Z,100.00
2022-08-22T23:58:24.342Z,100.00
